createdAt,value
2018-11-23T00:00:20.365Z,18.10
2018-11-23T00:05:18.267Z,15.60
2018-11-23T00:10:16.973Z,15.87
2018-11-23T00:15:17.466Z,16.07
2018-11-23T00:20:16.253Z,16.33
2018-11-23T00:25:17.931Z,16.60
2018-11-23T00:30:18.312Z,15.37
2018-11-23T00:35:17.443Z,15.50
2018-11-23T00:40:22.180Z,17.37
2018-11-23T00:45:19.668Z,15.63
2018-11-23T00:50:18.372Z,17.67
2018-11-23T00:55:16.883Z,15.50
2018-11-23T01:00:33.135Z,17.40
2018-11-23T01:05:30.581Z,17.00
2018-11-23T01:10:28.860Z,17.47
2018-11-23T01:15:26.299Z,16.47
2018-11-23T01:20:24.937Z,18.90
2018-11-23T01:25:23.233Z,17.60
2018-11-23T01:30:23.053Z,18.10
2018-11-23T01:35:20.502Z,14.40
2018-11-23T01:40:23.267Z,18.70
2018-11-23T01:45:20.781Z,16.63
2018-11-23T01:50:19.611Z,16.57
2018-11-23T01:55:17.843Z,15.13
2018-11-23T02:00:20.074Z,16.53
2018-11-23T02:05:17.545Z,15.40
2018-11-23T02:10:16.049Z,14.53
2018-11-23T02:15:15.184Z,17.73
2018-11-23T02:20:14.194Z,15.23
2018-11-23T02:25:11.689Z,14.53
2018-11-23T02:30:12.775Z,16.40
2018-11-23T02:35:10.509Z,14.47
2018-11-23T02:40:09.116Z,15.63
2018-11-23T02:45:08.564Z,14.70
2018-11-23T02:50:06.312Z,15.13
2018-11-23T02:55:04.365Z,16.33
2018-11-23T03:00:09.892Z,15.97
2018-11-23T03:05:08.820Z,16.00
2018-11-23T03:10:07.665Z,17.90
2018-11-23T03:15:06.044Z,14.90
2018-11-23T03:20:03.738Z,16.77
2018-11-23T03:25:01.172Z,17.63
2018-11-23T03:29:59.969Z,17.57
2018-11-23T03:34:57.511Z,15.50
2018-11-23T03:39:55.115Z,17.50
2018-11-23T03:44:52.513Z,18.60
2018-11-23T03:49:49.961Z,17.30
2018-11-23T03:54:47.383Z,18.43
2018-11-23T03:59:52.241Z,18.53
2018-11-23T04:04:49.722Z,18.80
2018-11-23T04:09:47.241Z,17.90
2018-11-23T04:14:44.636Z,17.83
2018-11-23T04:19:42.045Z,20.20
2018-11-23T04:24:39.441Z,21.03
2018-11-23T04:29:41.316Z,19.20
2018-11-23T04:34:38.797Z,20.77
2018-11-23T04:39:36.260Z,20.70
2018-11-23T04:44:33.660Z,20.13
2018-11-23T04:49:31.069Z,19.67
2018-11-23T04:54:28.487Z,18.73
2018-11-23T04:59:34.736Z,20.43
2018-11-23T05:04:32.197Z,20.57
2018-11-23T05:09:29.612Z,18.83
2018-11-23T05:14:27.030Z,19.57
2018-11-23T05:19:24.454Z,19.87
2018-11-23T05:24:21.904Z,19.63
2018-11-23T05:29:26.784Z,19.37
2018-11-23T05:34:24.287Z,18.43
2018-11-23T05:39:21.691Z,18.50
2018-11-23T05:44:19.102Z,21.97
2018-11-23T05:49:16.524Z,22.97
2018-11-23T05:54:14.003Z,19.77
2018-11-23T05:59:14.719Z,19.77
2018-11-23T06:04:12.396Z,22.67
2018-11-23T06:09:09.829Z,20.93
2018-11-23T06:14:07.305Z,20.73
2018-11-23T06:19:04.784Z,22.73
2018-11-23T06:24:02.257Z,22.13
2018-11-23T06:28:59.760Z,24.93
2018-11-23T06:33:57.228Z,22.27
2018-11-23T06:38:54.639Z,24.80
2018-11-23T06:43:52.411Z,21.07
2018-11-23T06:49:04.208Z,23.13
2018-11-23T06:54:01.861Z,25.30
2018-11-23T06:58:59.438Z,26.77
2018-11-23T07:03:56.920Z,28.67
2018-11-23T07:08:54.359Z,28.93
2018-11-23T07:13:52.114Z,35.87
2018-11-23T07:18:49.577Z,30.47
2018-11-23T07:23:47.008Z,26.87
2018-11-23T07:28:44.488Z,25.73
2018-11-23T07:33:41.952Z,27.30
2018-11-23T07:38:39.537Z,23.50
2018-11-23T07:43:36.977Z,22.87
2018-11-23T07:48:34.493Z,24.10
2018-11-23T07:53:32.029Z,23.03
2018-11-23T07:58:29.510Z,24.70
2018-11-23T08:03:26.986Z,26.57
2018-11-23T08:08:24.434Z,23.37
2018-11-23T08:13:21.955Z,24.90
2018-11-23T08:18:19.454Z,24.63
2018-11-23T08:23:18.427Z,23.07
2018-11-23T08:28:16.013Z,23.70
2018-11-23T08:33:13.685Z,24.90
2018-11-23T08:38:11.153Z,25.73
2018-11-23T08:43:08.631Z,26.03
2018-11-23T08:48:06.085Z,23.43
2018-11-23T08:53:03.698Z,24.83
2018-11-23T08:58:01.190Z,22.87
2018-11-23T09:03:00.146Z,24.63
2018-11-23T09:08:01.862Z,24.50
2018-11-23T09:13:06.689Z,26.20
2018-11-23T09:18:04.484Z,23.93
2018-11-23T09:23:01.961Z,24.87
2018-11-23T09:27:59.420Z,24.07
2018-11-23T09:32:57.469Z,25.20
2018-11-23T09:37:54.985Z,21.17
2018-11-23T09:42:52.645Z,25.40
2018-11-23T09:47:51.610Z,25.13
2018-11-23T09:52:50.512Z,25.10
2018-11-23T09:57:47.982Z,19.37
2018-11-23T10:02:46.216Z,23.50
2018-11-23T10:07:45.201Z,22.67
2018-11-23T10:12:42.945Z,22.50
2018-11-23T10:17:40.693Z,25.00
2018-11-23T10:22:38.336Z,20.53
2018-11-23T10:27:35.793Z,23.50
2018-11-23T10:32:33.279Z,23.33
2018-11-23T10:37:30.761Z,25.70
2018-11-23T10:42:29.052Z,25.83
2018-11-23T10:47:26.511Z,21.90
2018-11-23T10:52:23.983Z,23.37
2018-11-23T10:57:21.406Z,26.03
2018-11-23T11:02:24.605Z,23.60
2018-11-23T11:07:22.054Z,20.63
2018-11-23T11:12:19.535Z,21.77
2018-11-23T11:17:16.984Z,20.40
2018-11-23T11:22:14.467Z,19.47
2018-11-23T11:27:11.936Z,23.00
2018-11-23T11:32:09.462Z,17.83
2018-11-23T11:37:06.911Z,21.67
2018-11-23T11:42:04.500Z,24.90
2018-11-23T11:47:02.260Z,26.37
2018-11-23T11:51:59.711Z,24.60
2018-11-23T11:56:57.154Z,22.43
2018-11-23T12:01:54.683Z,20.80
2018-11-23T12:06:52.116Z,22.30
2018-11-23T12:11:49.598Z,21.63
2018-11-23T12:16:47.117Z,21.87
2018-11-23T12:21:44.601Z,23.90
2018-11-23T12:26:42.661Z,21.87
2018-11-23T12:31:40.214Z,21.83
2018-11-23T12:36:37.693Z,21.37
2018-11-23T12:41:35.147Z,22.30
2018-11-23T12:46:32.604Z,18.90
2018-11-23T12:51:30.091Z,21.70
2018-11-23T12:56:27.702Z,23.30
2018-11-23T13:01:25.272Z,19.70
2018-11-23T13:06:22.952Z,24.97
2018-11-23T13:11:20.713Z,25.63
2018-11-23T13:16:18.176Z,23.73
2018-11-23T13:21:15.717Z,23.20
2018-11-23T13:26:13.207Z,20.13
2018-11-23T13:31:10.673Z,22.63
2018-11-23T13:36:09.179Z,22.10
2018-11-23T13:41:06.801Z,21.67
2018-11-23T13:46:04.422Z,22.67
2018-11-23T13:51:02.044Z,18.60
2018-11-23T13:55:59.561Z,20.27
2018-11-23T14:00:57.079Z,22.07
2018-11-23T14:05:54.548Z,23.87
2018-11-23T14:10:52.429Z,24.87
2018-11-23T14:15:50.070Z,22.90
2018-11-23T14:20:49.068Z,23.47
2018-11-23T14:25:49.189Z,24.60
2018-11-23T14:30:48.463Z,25.63
2018-11-23T14:35:47.456Z,17.80
2018-11-23T14:40:46.323Z,24.47
2018-11-23T14:45:45.673Z,26.60
2018-11-23T14:50:50.589Z,24.50
2018-11-23T14:55:48.042Z,24.40
2018-11-23T15:00:45.536Z,23.57
2018-11-23T15:05:43.116Z,27.00
2018-11-23T15:10:40.626Z,23.90
2018-11-23T15:15:39.504Z,23.40
2018-11-23T15:20:40.246Z,23.80
2018-11-23T15:25:37.980Z,23.03
2018-11-23T15:30:37.532Z,24.23
2018-11-23T15:35:35.845Z,23.63
2018-11-23T15:40:33.530Z,25.70
2018-11-23T15:45:31.870Z,25.70
2018-11-23T15:50:32.608Z,25.07
2018-11-23T15:55:31.686Z,23.37
2018-11-23T16:00:32.765Z,24.20
2018-11-23T16:05:30.187Z,22.40
2018-11-23T16:10:29.051Z,24.47
2018-11-23T16:15:28.553Z,23.50
2018-11-23T16:20:28.674Z,25.80
2018-11-23T16:25:26.432Z,26.67
2018-11-23T16:30:27.249Z,24.33
2018-11-23T16:35:26.422Z,25.20
2018-11-23T16:40:25.309Z,23.80
2018-11-23T16:45:24.263Z,25.80
2018-11-23T16:50:21.801Z,26.60
2018-11-23T16:55:20.231Z,25.10
2018-11-23T17:00:21.757Z,24.10
2018-11-23T17:05:20.798Z,23.57
2018-11-23T17:10:18.745Z,22.70
2018-11-23T17:15:17.465Z,24.17
2018-11-23T17:20:16.264Z,24.10
2018-11-23T17:25:15.134Z,24.13
2018-11-23T17:30:16.524Z,25.13
2018-11-23T17:35:13.978Z,26.93
2018-11-23T17:40:13.672Z,29.63
2018-11-23T17:45:15.734Z,27.93
2018-11-23T17:50:15.184Z,29.40
2018-11-23T17:55:13.507Z,30.93
2018-11-23T18:00:14.680Z,30.00
2018-11-23T18:05:13.255Z,31.67
2018-11-23T18:10:14.014Z,31.87
2018-11-23T18:15:14.924Z,29.10
2018-11-23T18:20:13.569Z,29.47
2018-11-23T18:25:14.172Z,30.10
2018-11-23T18:30:13.749Z,29.10
2018-11-23T18:35:12.234Z,31.67
2018-11-23T18:40:12.052Z,29.40
2018-11-23T18:45:10.738Z,30.63
2018-11-23T18:50:12.094Z,30.10
2018-11-23T18:55:17.498Z,30.30
2018-11-23T19:00:10.691Z,29.77
2018-11-23T19:05:18.144Z,31.93
2018-11-23T19:10:15.581Z,27.40
2018-11-23T19:15:15.044Z,30.10
2018-11-23T19:20:15.401Z,29.60
2018-11-23T19:25:12.856Z,25.97
2018-11-23T19:30:13.082Z,30.67
2018-11-23T19:35:10.521Z,28.33
2018-11-23T19:40:09.486Z,28.27
2018-11-23T19:45:10.476Z,31.50
2018-11-23T19:50:13.598Z,29.37
2018-11-23T19:55:12.806Z,28.87
2018-11-23T20:00:18.256Z,29.20
2018-11-23T20:05:16.410Z,29.33
2018-11-23T20:10:15.710Z,29.43
2018-11-23T20:15:15.095Z,30.70
2018-11-23T20:20:14.094Z,31.80
2018-11-23T20:25:13.398Z,32.70
2018-11-23T20:30:14.660Z,29.83
2018-11-23T20:35:13.747Z,29.90
2018-11-23T20:40:15.540Z,28.20
2018-11-23T20:45:13.621Z,28.50
2018-11-23T20:50:13.991Z,27.00
2018-11-23T20:55:14.087Z,29.57
2018-11-23T21:00:14.474Z,26.40
2018-11-23T21:05:13.442Z,29.50
2018-11-23T21:10:19.975Z,26.27
2018-11-23T21:15:15.862Z,30.63
2018-11-23T21:20:13.387Z,30.50
2018-11-23T21:25:11.396Z,29.23
2018-11-23T21:30:15.657Z,31.07
2018-11-23T21:35:13.971Z,27.77
2018-11-23T21:40:13.771Z,30.33
2018-11-23T21:45:14.402Z,30.77
2018-11-23T21:50:15.897Z,31.27
2018-11-23T21:55:22.274Z,31.23
2018-11-23T22:00:21.414Z,31.83
2018-11-23T22:05:19.544Z,32.30
2018-11-23T22:10:18.268Z,23.47
2018-11-23T22:15:22.229Z,25.00
2018-11-23T22:20:21.179Z,27.17
2018-11-23T22:25:21.225Z,24.90
2018-11-23T22:30:28.977Z,24.83
2018-11-23T22:35:28.351Z,25.10
2018-11-23T22:40:26.394Z,24.27
2018-11-23T22:45:24.458Z,25.77
2018-11-23T22:50:23.230Z,22.80
2018-11-23T22:55:21.304Z,20.87
2018-11-23T23:00:40.339Z,21.50
2018-11-23T23:05:38.316Z,23.00
2018-11-23T23:10:57.997Z,23.20
2018-11-23T23:15:56.196Z,22.40
2018-11-23T23:20:54.243Z,23.30
2018-11-23T23:25:52.455Z,21.97
2018-11-23T23:30:50.582Z,23.00
2018-11-23T23:35:52.553Z,22.50
2018-11-23T23:40:56.577Z,20.63
2018-11-23T23:45:54.141Z,20.63
2018-11-23T23:50:58.629Z,19.13
2018-11-23T23:56:01.563Z,19.80
